createdAt,value
2023-01-29T00:01:12.813Z,101650.29
2023-01-29T00:03:42.007Z,101652.99
2023-01-29T00:06:10.692Z,101652.16
2023-01-29T00:08:39.375Z,101651.93
2023-01-29T00:11:09.848Z,101653.77
2023-01-29T00:13:38.432Z,101655.50
2023-01-29T00:16:07.472Z,101655.95
2023-01-29T00:18:40.282Z,101657.26
2023-01-29T00:21:14.060Z,101659.80
2023-01-29T00:23:45.833Z,101662.27
2023-01-29T00:26:15.238Z,101663.39
2023-01-29T00:28:45.555Z,101664.80
2023-01-29T00:31:21.199Z,101664.44
2023-01-29T00:33:59.307Z,101663.10
2023-01-29T00:36:28.550Z,101663.58
2023-01-29T00:38:58.964Z,101663.89
2023-01-29T00:41:48.242Z,101665.11
2023-01-29T00:44:36.041Z,101666.25
2023-01-29T00:47:25.614Z,101660.13
2023-01-29T00:49:57.263Z,101662.56
2023-01-29T00:52:26.505Z,101668.81
2023-01-29T00:54:59.873Z,101673.05
2023-01-29T00:57:34.628Z,101678.94
2023-01-29T01:00:06.761Z,101676.89
2023-01-29T01:02:55.510Z,101673.94
2023-01-29T01:05:27.171Z,101669.49
2023-01-29T01:08:06.460Z,101670.31
2023-01-29T01:10:34.783Z,101668.71
2023-01-29T01:13:07.961Z,101667.94
2023-01-29T01:15:39.125Z,101665.00
2023-01-29T01:18:07.699Z,101669.58
2023-01-29T01:20:37.106Z,101671.80
2023-01-29T01:23:05.578Z,101672.37
2023-01-29T01:25:34.313Z,101674.98
2023-01-29T01:28:03.209Z,101674.69
2023-01-29T01:30:33.367Z,101675.64
2023-01-29T01:33:04.819Z,101678.55
2023-01-29T01:35:33.639Z,101678.36
2023-01-29T01:38:02.195Z,101681.13
2023-01-29T01:40:33.337Z,101683.30
2023-01-29T01:43:02.326Z,101687.43
2023-01-29T01:45:35.704Z,101694.36
2023-01-29T01:48:15.368Z,101685.81
2023-01-29T01:50:55.515Z,101689.30
2023-01-29T01:53:41.640Z,101689.66
2023-01-29T01:56:18.303Z,101692.21
2023-01-29T01:58:54.441Z,101691.33
2023-01-29T02:01:30.605Z,101695.80
2023-01-29T02:04:24.085Z,101699.52
2023-01-29T02:07:14.301Z,101705.09
2023-01-29T02:10:04.287Z,101702.21
2023-01-29T02:12:33.448Z,101705.52
2023-01-29T02:15:05.108Z,101706.62
2023-01-29T02:17:35.715Z,101708.71
2023-01-29T02:20:27.047Z,101714.79
2023-01-29T02:23:14.880Z,101712.29
2023-01-29T02:26:12.040Z,101719.71
2023-01-29T02:29:22.837Z,101725.39
2023-01-29T02:32:41.276Z,101716.00
2023-01-29T02:35:45.107Z,101717.63
2023-01-29T02:38:38.550Z,101714.89
2023-01-29T02:41:34.056Z,101715.40
2023-01-29T02:44:19.750Z,101722.34
2023-01-29T02:47:18.132Z,101726.05
2023-01-29T02:49:53.156Z,101722.55
2023-01-29T02:52:25.666Z,101722.27
2023-01-29T02:55:09.567Z,101724.38
2023-01-29T02:57:42.463Z,101727.70
2023-01-29T03:00:21.000Z,101733.12
2023-01-29T03:03:00.665Z,101735.85
2023-01-29T03:05:35.455Z,101740.45
2023-01-29T03:08:10.682Z,101743.64
2023-01-29T03:10:50.834Z,101742.75
2023-01-29T03:13:44.737Z,101745.67
2023-01-29T03:16:27.278Z,101743.73
2023-01-29T03:19:10.350Z,101744.17
2023-01-29T03:21:54.105Z,101746.17
2023-01-29T03:25:18.829Z,101744.86
2023-01-29T03:28:07.242Z,101744.55
2023-01-29T03:31:22.007Z,101742.08
2023-01-29T03:34:18.462Z,101742.80
2023-01-29T03:36:56.082Z,101743.05
2023-01-29T03:39:28.806Z,101747.80
2023-01-29T03:42:18.593Z,101747.70
2023-01-29T03:45:12.264Z,101749.07
2023-01-29T03:48:00.478Z,101749.27
2023-01-29T03:50:42.508Z,101748.45
2023-01-29T03:53:49.079Z,101750.69
2023-01-29T03:56:24.014Z,101750.52
2023-01-29T03:59:02.833Z,101752.40
2023-01-29T04:02:00.935Z,101748.55
2023-01-29T04:04:39.447Z,101748.98
2023-01-29T04:07:14.362Z,101748.65
2023-01-29T04:09:50.929Z,101749.96
2023-01-29T04:12:26.274Z,101754.02
2023-01-29T04:14:59.789Z,101751.92
2023-01-29T04:17:35.008Z,101747.75
2023-01-29T04:20:14.162Z,101747.69
2023-01-29T04:22:48.351Z,101746.30
2023-01-29T04:25:26.988Z,101748.27
2023-01-29T04:28:01.998Z,101743.80
2023-01-29T04:30:39.143Z,101748.39
2023-01-29T04:33:26.508Z,101747.63
2023-01-29T04:36:11.792Z,101749.13
2023-01-29T04:38:42.324Z,101745.05
2023-01-29T04:41:45.714Z,101750.88
2023-01-29T04:44:17.175Z,101752.17
2023-01-29T04:46:57.650Z,101754.64
2023-01-29T04:49:43.361Z,101755.69
2023-01-29T04:52:48.157Z,101758.40
2023-01-29T04:55:30.275Z,101760.55
2023-01-29T04:58:31.727Z,101766.52
2023-01-29T05:01:02.283Z,101759.25
2023-01-29T05:03:33.056Z,101756.28
2023-01-29T05:06:02.882Z,101763.63
2023-01-29T05:08:33.167Z,101767.21
2023-01-29T05:11:01.780Z,101767.14
2023-01-29T05:13:34.644Z,101768.70
2023-01-29T05:16:10.543Z,101771.88
2023-01-29T05:18:39.037Z,101774.14
2023-01-29T05:21:13.576Z,101769.02
2023-01-29T05:23:53.570Z,101774.27
2023-01-29T05:26:40.889Z,101771.65
2023-01-29T05:29:12.398Z,101771.54
2023-01-29T05:31:44.893Z,101766.13
2023-01-29T05:34:22.553Z,101765.81
2023-01-29T05:36:51.775Z,101766.23
2023-01-29T05:39:20.508Z,101768.45
2023-01-29T05:41:51.553Z,101771.14
2023-01-29T05:44:20.959Z,101770.29
2023-01-29T05:46:51.150Z,101769.98
2023-01-29T05:49:20.985Z,101769.77
2023-01-29T05:51:49.681Z,101771.80
2023-01-29T05:54:20.412Z,101778.29
2023-01-29T05:56:49.095Z,101781.39
2023-01-29T05:59:18.216Z,101778.41
2023-01-29T06:01:49.951Z,101780.17
2023-01-29T06:04:18.627Z,101786.20
2023-01-29T06:06:47.409Z,101786.91
2023-01-29T06:09:18.660Z,101785.29
2023-01-29T06:11:50.110Z,101790.72
2023-01-29T06:14:18.648Z,101790.84
2023-01-29T06:16:47.176Z,101795.65
2023-01-29T06:19:16.419Z,101793.64
2023-01-29T06:21:47.194Z,101797.60
2023-01-29T06:24:18.675Z,101798.67
2023-01-29T06:26:48.486Z,101799.31
2023-01-29T06:29:19.367Z,101801.96
2023-01-29T06:35:32.564Z,101799.09
2023-01-29T06:38:01.876Z,101803.20
2023-01-29T06:40:32.285Z,101804.33
2023-01-29T06:43:01.687Z,101804.62
2023-01-29T06:45:32.152Z,101804.09
2023-01-29T06:48:01.644Z,101805.38
2023-01-29T06:50:30.715Z,101805.71
2023-01-29T06:53:00.448Z,101804.23
2023-01-29T06:55:30.297Z,101803.89
2023-01-29T06:57:59.025Z,101803.59
2023-01-29T07:00:31.531Z,101806.00
2023-01-29T07:03:00.214Z,101801.83
2023-01-29T07:05:29.398Z,101798.92
2023-01-29T07:07:58.800Z,101802.52
2023-01-29T07:10:30.152Z,101798.77
2023-01-29T07:13:02.515Z,101798.83
2023-01-29T07:15:31.096Z,101797.85
2023-01-29T07:18:02.035Z,101796.89
2023-01-29T07:20:31.936Z,101798.66
2023-01-29T07:23:01.145Z,101796.13
2023-01-29T07:25:30.768Z,101796.30
2023-01-29T07:28:05.576Z,101798.89
2023-01-29T07:30:34.870Z,101803.41
2023-01-29T07:33:07.604Z,101802.77
2023-01-29T07:35:43.662Z,101803.91
2023-01-29T07:38:13.660Z,101802.03
2023-01-29T07:40:42.748Z,101801.52
2023-01-29T07:43:12.284Z,101796.96
2023-01-29T07:45:47.295Z,101800.83
2023-01-29T07:48:16.264Z,101800.43
2023-01-29T07:50:44.851Z,101803.35
2023-01-29T07:53:15.401Z,101807.27
2023-01-29T07:55:46.960Z,101805.67
2023-01-29T07:58:15.624Z,101805.23
2023-01-29T08:00:47.526Z,101807.45
2023-01-29T08:03:18.555Z,101803.77
2023-01-29T08:05:48.112Z,101807.30
2023-01-29T08:08:17.214Z,101807.20
2023-01-29T08:10:48.755Z,101810.30
2023-01-29T08:13:17.959Z,101818.90
2023-01-29T08:15:54.242Z,101815.05
2023-01-29T08:18:25.992Z,101817.23
2023-01-29T08:21:01.237Z,101823.11
2023-01-29T08:23:31.658Z,101825.73
2023-01-29T08:26:05.620Z,101836.73
2023-01-29T08:28:35.386Z,101837.23
2023-01-29T08:31:04.136Z,101839.81
2023-01-29T08:33:39.110Z,101840.13
2023-01-29T08:36:11.205Z,101840.73
2023-01-29T08:38:42.464Z,101841.70
2023-01-29T08:41:11.732Z,101841.79
2023-01-29T08:43:41.925Z,101844.67
2023-01-29T08:46:14.956Z,101841.11
2023-01-29T08:48:47.739Z,101840.67
2023-01-29T08:51:16.779Z,101840.42
2023-01-29T08:53:50.561Z,101838.19
2023-01-29T08:56:21.163Z,101840.45
2023-01-29T08:58:51.698Z,101834.97
2023-01-29T09:01:20.447Z,101834.07
2023-01-29T09:03:51.671Z,101830.82
2023-01-29T09:06:23.962Z,101835.29
2023-01-29T09:08:55.713Z,101829.05
2023-01-29T09:11:24.799Z,101831.36
2023-01-29T09:13:54.466Z,101833.46
2023-01-29T09:16:23.025Z,101834.92
2023-01-29T09:18:54.596Z,101838.36
2023-01-29T09:21:23.345Z,101832.52
2023-01-29T09:23:52.852Z,101838.29
2023-01-29T09:26:26.174Z,101832.91
2023-01-29T09:28:57.850Z,101833.23
2023-01-29T09:31:26.546Z,101831.23
2023-01-29T09:33:56.105Z,101828.73
2023-01-29T09:36:24.972Z,101825.76
2023-01-29T09:38:54.811Z,101822.58
2023-01-29T09:41:54.189Z,101817.85
2023-01-29T09:44:45.014Z,101819.56
2023-01-29T09:47:19.629Z,101816.55
2023-01-29T09:50:07.478Z,101816.52
2023-01-29T09:52:43.927Z,101814.64
2023-01-29T09:55:33.011Z,101816.25
2023-01-29T09:58:19.928Z,101815.91
2023-01-29T10:01:21.053Z,101810.90
2023-01-29T10:04:07.370Z,101805.52
2023-01-29T10:06:55.008Z,101809.80
2023-01-29T10:10:01.416Z,101800.63
2023-01-29T10:12:56.544Z,101794.32
2023-01-29T10:15:46.128Z,101794.16
2023-01-29T10:18:48.248Z,101794.09
2023-01-29T10:25:06.755Z,101789.39
2023-01-29T10:27:40.680Z,101790.20
2023-01-29T10:30:39.090Z,101787.77
2023-01-29T10:33:19.221Z,101787.57
2023-01-29T10:36:02.883Z,101786.79
2023-01-29T10:38:51.910Z,101786.14
2023-01-29T10:41:57.533Z,101784.77
2023-01-29T10:44:52.878Z,101788.20
2023-01-29T10:47:53.469Z,101795.62
2023-01-29T10:51:01.598Z,101790.63
2023-01-29T10:54:01.829Z,101787.56
2023-01-29T10:57:10.367Z,101775.08
2023-01-29T11:03:28.683Z,101775.41
2023-01-29T11:06:19.548Z,101772.71
2023-01-29T11:08:50.696Z,101766.52
2023-01-29T11:11:23.102Z,101768.70
2023-01-29T11:14:07.261Z,101768.52
2023-01-29T11:16:48.492Z,101762.42
2023-01-29T11:19:21.431Z,101770.58
2023-01-29T11:21:55.585Z,101756.95
2023-01-29T11:24:30.250Z,101759.11
2023-01-29T11:27:00.864Z,101759.29
2023-01-29T11:29:35.356Z,101755.96
2023-01-29T11:32:13.470Z,101752.08
2023-01-29T11:34:57.821Z,101758.63
2023-01-29T11:37:40.812Z,101752.17
2023-01-29T11:40:19.131Z,101757.40
2023-01-29T11:42:52.652Z,101757.02
2023-01-29T11:45:27.952Z,101759.40
2023-01-29T11:47:58.413Z,101752.89
2023-01-29T11:50:29.965Z,101757.94
2023-01-29T11:53:00.888Z,101744.94
2023-01-29T11:55:50.265Z,101742.79
2023-01-29T11:58:32.611Z,101739.10
2023-01-29T12:01:06.615Z,101746.02
2023-01-29T12:03:46.223Z,101748.76
2023-01-29T12:06:26.693Z,101744.25
2023-01-29T12:09:04.625Z,101742.11
2023-01-29T12:11:37.768Z,101744.56
2023-01-29T12:14:32.058Z,101741.77
2023-01-29T12:17:21.532Z,101740.80
2023-01-29T12:19:58.026Z,101748.77
2023-01-29T12:23:13.020Z,101745.09
2023-01-29T12:26:19.906Z,101744.02
2023-01-29T12:29:17.488Z,101748.41
2023-01-29T12:32:06.685Z,101747.73
2023-01-29T12:34:49.432Z,101745.39
2023-01-29T12:37:27.148Z,101747.56
2023-01-29T12:39:57.745Z,101749.05
2023-01-29T12:42:27.876Z,101751.39
2023-01-29T12:45:01.802Z,101755.10
2023-01-29T12:47:40.332Z,101759.64
2023-01-29T12:50:43.015Z,101762.73
2023-01-29T12:53:29.489Z,101761.23
2023-01-29T12:56:25.554Z,101759.98
2023-01-29T12:58:57.525Z,101759.81
2023-01-29T13:01:38.857Z,101766.19
2023-01-29T13:04:27.506Z,101767.69
2023-01-29T13:07:12.333Z,101765.41
2023-01-29T13:09:47.097Z,101764.49
2023-01-29T13:12:19.255Z,101762.63
2023-01-29T13:15:28.369Z,101761.35
2023-01-29T13:18:07.550Z,101760.03
2023-01-29T13:20:39.789Z,101757.11
2023-01-29T13:23:42.003Z,101758.87
2023-01-29T13:26:13.814Z,101755.06
2023-01-29T13:28:46.873Z,101748.48
2023-01-29T13:31:36.212Z,101748.11
2023-01-29T13:34:28.488Z,101751.33
2023-01-29T13:37:05.778Z,101753.91
2023-01-29T13:39:49.523Z,101754.91
2023-01-29T13:42:46.157Z,101753.11
2023-01-29T13:45:37.337Z,101755.04
2023-01-29T13:48:12.022Z,101756.89
2023-01-29T13:50:46.787Z,101757.24
2023-01-29T13:53:27.626Z,101760.91
2023-01-29T13:56:34.835Z,101762.07
2023-01-29T13:59:06.519Z,101755.67
2023-01-29T14:01:47.750Z,101759.97
2023-01-29T14:04:19.521Z,101757.77
2023-01-29T14:06:52.892Z,101753.75
2023-01-29T14:09:38.730Z,101756.34
2023-01-29T14:12:28.548Z,101756.55
2023-01-29T14:15:28.201Z,101760.77
2023-01-29T14:18:21.756Z,101763.77
2023-01-29T14:21:02.287Z,101760.72
2023-01-29T14:23:50.614Z,101761.68
2023-01-29T14:26:47.629Z,101761.02
2023-01-29T14:29:35.022Z,101762.28
2023-01-29T14:32:09.064Z,101759.84
2023-01-29T14:34:47.371Z,101761.56
2023-01-29T14:37:22.562Z,101762.44
2023-01-29T14:40:01.874Z,101758.14
2023-01-29T14:42:40.297Z,101763.59
2023-01-29T14:45:34.291Z,101759.55
2023-01-29T14:48:16.951Z,101762.11
2023-01-29T14:50:52.669Z,101761.70
2023-01-29T14:53:44.622Z,101761.39
2023-01-29T14:56:41.078Z,101762.95
2023-01-29T14:59:30.082Z,101765.90
2023-01-29T15:02:06.009Z,101765.96
2023-01-29T15:04:49.241Z,101765.25
2023-01-29T15:07:27.724Z,101769.41
2023-01-29T15:10:24.487Z,101761.64
2023-01-29T15:13:25.356Z,101757.42
2023-01-29T15:16:10.118Z,101760.80
2023-01-29T15:18:43.172Z,101765.69
2023-01-29T15:21:20.727Z,101764.65
2023-01-29T15:24:12.137Z,101768.41
2023-01-29T15:26:49.498Z,101769.09
2023-01-29T15:29:27.346Z,101770.59
2023-01-29T15:31:58.828Z,101768.82
2023-01-29T15:34:31.392Z,101767.73
2023-01-29T15:37:02.916Z,101767.58
2023-01-29T15:39:47.004Z,101774.73
2023-01-29T15:42:28.527Z,101768.79
2023-01-29T15:44:59.788Z,101769.14
2023-01-29T15:47:32.655Z,101770.45
2023-01-29T15:50:01.553Z,101773.39
2023-01-29T15:52:36.612Z,101776.27
2023-01-29T15:55:07.459Z,101778.71
2023-01-29T15:57:41.143Z,101777.89
2023-01-29T16:00:32.476Z,101779.27
2023-01-29T16:03:04.397Z,101781.50
2023-01-29T16:08:22.798Z,101785.92
2023-01-29T16:10:59.789Z,101788.88
2023-01-29T16:13:32.590Z,101787.30
2023-01-29T16:16:24.473Z,101784.80
2023-01-29T16:19:00.882Z,101784.95
2023-01-29T16:21:37.469Z,101786.73
2023-01-29T16:24:15.105Z,101791.58
2023-01-29T16:26:56.307Z,101789.00
2023-01-29T16:29:36.312Z,101783.64
2023-01-29T16:35:35.922Z,101781.02
2023-01-29T16:38:15.126Z,101779.58
2023-01-29T16:41:09.265Z,101780.94
2023-01-29T16:43:55.654Z,101782.15
2023-01-29T16:46:45.515Z,101778.19
2023-01-29T16:49:27.135Z,101777.55
2023-01-29T16:52:17.629Z,101781.29
2023-01-29T16:54:48.732Z,101780.80
2023-01-29T16:57:25.723Z,101776.89
2023-01-29T17:00:03.020Z,101774.44
2023-01-29T17:02:41.126Z,101768.47
2023-01-29T17:05:30.051Z,101770.14
2023-01-29T17:08:00.839Z,101771.10
2023-01-29T17:10:32.412Z,101776.29
2023-01-29T17:13:08.609Z,101781.42
2023-01-29T17:15:46.860Z,101781.25
2023-01-29T17:18:25.171Z,101777.23
2023-01-29T17:20:59.627Z,101781.56
2023-01-29T17:23:31.903Z,101777.31
2023-01-29T17:26:09.902Z,101774.83
2023-01-29T17:28:47.134Z,101775.20
2023-01-29T17:31:21.441Z,101775.20
2023-01-29T17:33:52.595Z,101773.91
2023-01-29T17:36:23.232Z,101776.84
2023-01-29T17:38:55.916Z,101772.30
2023-01-29T17:41:30.090Z,101775.05
2023-01-29T17:43:59.244Z,101773.08
2023-01-29T17:46:36.442Z,101768.73
2023-01-29T17:49:25.433Z,101773.05
2023-01-29T17:51:58.241Z,101776.95
2023-01-29T17:54:35.559Z,101779.55
2023-01-29T17:57:07.202Z,101781.16
2023-01-29T17:59:36.839Z,101781.84
2023-01-29T18:02:09.308Z,101783.05
2023-01-29T18:05:05.015Z,101781.67
2023-01-29T18:07:40.783Z,101782.34
2023-01-29T18:10:21.351Z,101781.84
2023-01-29T18:12:53.506Z,101782.50
2023-01-29T18:15:24.688Z,101785.10
2023-01-29T18:17:54.598Z,101789.08
2023-01-29T18:20:28.881Z,101789.50
2023-01-29T18:23:05.490Z,101793.11
2023-01-29T18:25:43.949Z,101800.16
2023-01-29T18:28:18.157Z,101802.84
2023-01-29T18:30:47.887Z,101797.82
2023-01-29T18:33:17.737Z,101797.95
2023-01-29T18:35:49.719Z,101801.95
2023-01-29T18:38:20.544Z,101799.56
2023-01-29T18:40:55.817Z,101795.64
2023-01-29T18:43:27.154Z,101802.13
2023-01-29T18:46:01.232Z,101804.55
2023-01-29T18:48:36.288Z,101800.79
2023-01-29T18:51:08.149Z,101803.73
2023-01-29T18:53:38.030Z,101804.73
2023-01-29T18:56:11.353Z,101806.69
2023-01-29T18:58:40.654Z,101806.96
2023-01-29T19:01:12.155Z,101807.45
2023-01-29T19:03:45.029Z,101807.76
2023-01-29T19:06:20.748Z,101802.48
2023-01-29T19:08:51.637Z,101807.40
2023-01-29T19:11:22.512Z,101805.31
2023-01-29T19:13:53.438Z,101807.67
2023-01-29T19:16:25.612Z,101809.71
2023-01-29T19:19:03.505Z,101804.21
2023-01-29T19:21:36.192Z,101809.85
2023-01-29T19:24:08.597Z,101815.30
2023-01-29T19:26:40.167Z,101812.42
2023-01-29T19:29:13.180Z,101812.04
2023-01-29T19:31:45.942Z,101813.48
2023-01-29T19:34:16.006Z,101815.02
2023-01-29T19:36:47.493Z,101814.42
2023-01-29T19:39:21.316Z,101815.09
2023-01-29T19:41:50.880Z,101815.02
2023-01-29T19:44:23.512Z,101811.73
2023-01-29T19:46:56.679Z,101812.05
2023-01-29T19:49:30.642Z,101811.67
2023-01-29T19:52:01.286Z,101812.14
2023-01-29T19:54:33.029Z,101815.09
2023-01-29T19:57:04.613Z,101809.96
2023-01-29T19:59:39.343Z,101808.45
2023-01-29T20:02:11.862Z,101809.01
2023-01-29T20:04:48.127Z,101808.77
2023-01-29T20:07:22.084Z,101810.30
2023-01-29T20:09:52.854Z,101806.30
2023-01-29T20:12:24.454Z,101801.83
2023-01-29T20:14:53.237Z,101807.74
2023-01-29T20:17:22.438Z,101802.52
2023-01-29T20:19:51.583Z,101799.92
2023-01-29T20:22:21.177Z,101796.71
2023-01-29T20:24:49.834Z,101798.20
2023-01-29T20:27:19.345Z,101797.64
2023-01-29T20:29:49.259Z,101795.64
2023-01-29T20:32:20.147Z,101792.84
2023-01-29T20:34:52.757Z,101791.08
2023-01-29T20:37:21.132Z,101795.59
2023-01-29T20:39:49.821Z,101791.64
2023-01-29T20:42:18.821Z,101791.89
2023-01-29T20:44:47.809Z,101789.16
2023-01-29T20:47:16.701Z,101788.44
2023-01-29T20:49:48.654Z,101789.10
2023-01-29T20:52:18.907Z,101787.00
2023-01-29T20:54:47.709Z,101784.14
2023-01-29T20:57:18.820Z,101784.84
2023-01-29T20:59:48.321Z,101791.28
2023-01-29T21:02:17.408Z,101788.46
2023-01-29T21:04:48.856Z,101787.95
2023-01-29T21:07:22.117Z,101781.59
2023-01-29T21:09:52.460Z,101778.36
2023-01-29T21:12:24.569Z,101780.60
2023-01-29T21:14:57.751Z,101776.31
2023-01-29T21:17:28.575Z,101777.61
2023-01-29T21:19:57.534Z,101778.78
2023-01-29T21:22:26.453Z,101777.09
2023-01-29T21:24:56.596Z,101776.84
2023-01-29T21:27:26.277Z,101779.83
2023-01-29T21:29:56.080Z,101781.12
2023-01-29T21:32:24.599Z,101778.14
2023-01-29T21:34:53.166Z,101773.03
2023-01-29T21:37:24.004Z,101771.16
2023-01-29T21:39:57.522Z,101773.77
2023-01-29T21:42:44.817Z,101766.19
2023-01-29T21:45:16.189Z,101765.85
2023-01-29T21:47:44.980Z,101760.17
2023-01-29T21:50:17.703Z,101757.02
2023-01-29T21:52:46.913Z,101761.23
2023-01-29T21:55:16.650Z,101759.08
2023-01-29T21:57:48.008Z,101754.36
2023-01-29T22:00:18.998Z,101752.02
2023-01-29T22:02:50.605Z,101747.02
2023-01-29T22:05:22.132Z,101745.98
2023-01-29T22:07:51.481Z,101743.07
2023-01-29T22:10:22.583Z,101741.13
2023-01-29T22:12:51.687Z,101735.45
2023-01-29T22:15:23.550Z,101734.14
2023-01-29T22:17:53.560Z,101728.97
2023-01-29T22:20:29.970Z,101730.55
2023-01-29T22:23:04.760Z,101728.81
2023-01-29T22:25:34.472Z,101722.80
2023-01-29T22:28:02.832Z,101722.19
2023-01-29T22:30:31.537Z,101724.86
2023-01-29T22:33:02.630Z,101725.22
2023-01-29T22:35:31.568Z,101719.55
2023-01-29T22:38:03.618Z,101715.02
2023-01-29T22:40:32.411Z,101712.98
2023-01-29T22:43:01.612Z,101710.73
2023-01-29T22:45:34.386Z,101712.13
2023-01-29T22:48:03.381Z,101710.14
2023-01-29T22:50:32.163Z,101708.52
2023-01-29T22:53:00.781Z,101707.20
2023-01-29T22:55:29.498Z,101703.38
2023-01-29T22:57:58.216Z,101704.09
2023-01-29T23:00:26.904Z,101698.79
2023-01-29T23:02:58.927Z,101696.99
2023-01-29T23:05:28.271Z,101697.22
2023-01-29T23:07:57.395Z,101696.13
2023-01-29T23:10:26.772Z,101692.70
2023-01-29T23:13:00.784Z,101694.95
2023-01-29T23:15:30.227Z,101691.55
2023-01-29T23:18:01.566Z,101689.40
2023-01-29T23:20:32.744Z,101682.95
2023-01-29T23:23:01.594Z,101681.09
2023-01-29T23:25:53.287Z,101679.31
2023-01-29T23:28:21.774Z,101670.90
2023-01-29T23:30:52.349Z,101673.61
2023-01-29T23:33:24.670Z,101672.23
2023-01-29T23:35:53.413Z,101665.74
2023-01-29T23:38:23.994Z,101665.09
2023-01-29T23:40:52.676Z,101662.95
2023-01-29T23:43:30.077Z,101661.52
2023-01-29T23:45:58.675Z,101658.92
2023-01-29T23:48:27.044Z,101658.16
2023-01-29T23:50:55.511Z,101662.73
2023-01-29T23:53:24.199Z,101657.64
2023-01-29T23:55:57.998Z,101657.88
2023-01-29T23:58:29.446Z,101657.71
